Time;durP1;ratioP1;P1;durP2;ratioP2;P2;SDS_P1;SDS_P2;PMS_P1;PMS_P2;Temp;Humidity;BMP_temperature;BMP_pressure;BME280_temperature;BME280_humidity;BME280_pressure;Samples;Min_cycle;Max_cycle;Signal;HPM_P1;HPM_P2
2021/03/10 00:01:01;;;;;;;39.90;30.63;;;5.20;99.90;;;;;;4972083;28;20210;-72
2021/03/10 00:03:28;;;;;;;39.93;30.67;;;5.10;99.90;;;;;;4972122;28;20263;-72
2021/03/10 00:05:55;;;;;;;42.57;30.37;;;5.20;99.90;;;;;;4972714;28;20229;-72
2021/03/10 00:08:22;;;;;;;45.67;30.43;;;5.30;99.90;;;;;;4971996;28;20214;-72
2021/03/10 00:10:48;;;;;;;47.50;34.03;;;5.30;99.90;;;;;;4972079;28;20210;-72
2021/03/10 00:13:15;;;;;;;44.47;32.63;;;5.20;99.90;;;;;;4971717;28;20217;-72
2021/03/10 00:15:41;;;;;;;40.97;31.97;;;5.20;99.90;;;;;;4971631;28;20229;-73
2021/03/10 00:18:08;;;;;;;45.73;31.43;;;5.10;99.90;;;;;;4971465;28;20704;-74
2021/03/10 00:20:34;;;;;;;46.97;31.13;;;5.10;99.90;;;;;;4971947;28;20584;-72
2021/03/10 00:23:02;;;;;;;44.00;32.37;;;5.20;99.90;;;;;;4971466;28;20220;-72
2021/03/10 00:25:28;;;;;;;41.73;30.50;;;5.10;99.90;;;;;;4971712;28;20209;-72
2021/03/10 00:27:55;;;;;;;45.57;33.10;;;5.10;99.90;;;;;;4971965;28;20217;-74
2021/03/10 00:30:22;;;;;;;50.40;33.30;;;5.10;99.90;;;;;;4971532;28;20632;-73
2021/03/10 00:32:48;;;;;;;43.73;31.17;;;5.10;99.90;;;;;;4971705;28;20217;-74
2021/03/10 00:35:15;;;;;;;44.80;30.57;;;5.10;99.90;;;;;;4971447;28;20241;-74
2021/03/10 00:37:41;;;;;;;65.43;41.70;;;5.00;99.90;;;;;;4971630;28;20229;-74
2021/03/10 00:40:09;;;;;;;47.77;32.67;;;5.00;99.90;;;;;;4971029;28;20210;-74
2021/03/10 00:42:36;;;;;;;47.90;32.53;;;4.90;99.90;;;;;;4971632;28;20214;-76
2021/03/10 00:45:03;;;;;;;44.60;31.40;;;4.90;99.90;;;;;;4973564;28;20220;-74
2021/03/10 00:47:29;;;;;;;48.63;32.57;;;4.90;99.90;;;;;;4976003;28;20213;-73
2021/03/10 00:49:57;;;;;;;40.63;29.63;;;4.80;99.90;;;;;;4975915;28;20205;-76
2021/03/10 00:52:24;;;;;;;47.27;30.43;;;4.80;99.90;;;;;;4975725;28;20218;-74
2021/03/10 00:54:50;;;;;;;44.03;30.30;;;4.80;99.90;;;;;;4974855;28;20233;-74
2021/03/10 00:57:17;;;;;;;40.03;29.50;;;4.80;99.90;;;;;;4975243;28;20217;-74
2021/03/10 00:59:44;;;;;;;38.57;28.53;;;4.80;99.90;;;;;;4975569;28;20232;-74
2021/03/10 01:02:10;;;;;;;35.77;27.80;;;4.70;99.90;;;;;;4975128;28;20214;-74
2021/03/10 01:04:37;;;;;;;43.93;30.03;;;4.70;99.90;;;;;;4975220;28;20214;-74
2021/03/10 01:07:03;;;;;;;41.40;30.93;;;4.70;99.90;;;;;;4974658;28;20267;-74
2021/03/10 01:09:30;;;;;;;45.70;29.83;;;4.70;99.90;;;;;;4975165;28;20697;-74
2021/03/10 01:11:56;;;;;;;41.73;28.97;;;4.70;99.90;;;;;;4975475;28;20264;-75
2021/03/10 01:14:23;;;;;;;40.83;29.47;;;4.60;99.90;;;;;;4975242;28;20237;-75
2021/03/10 01:16:50;;;;;;;45.90;31.97;;;4.30;99.90;;;;;;4975143;28;20221;-74
2021/03/10 01:19:17;;;;;;;41.50;28.27;;;4.30;99.90;;;;;;4974705;28;20213;-74
2021/03/10 01:21:43;;;;;;;40.50;31.37;;;4.30;99.90;;;;;;4974788;28;20209;-73
2021/03/10 01:24:10;;;;;;;42.03;29.07;;;4.50;99.90;;;;;;4974319;28;20749;-73
2021/03/10 01:26:37;;;;;;;38.80;28.87;;;4.60;99.90;;;;;;4975056;28;20213;-75
2021/03/10 01:29:04;;;;;;;40.07;30.90;;;4.50;99.90;;;;;;4974369;28;20628;-74
2021/03/10 01:31:31;;;;;;;38.63;28.30;;;4.50;99.90;;;;;;4974884;28;20678;-73
2021/03/10 01:33:57;;;;;;;43.03;29.37;;;4.40;99.90;;;;;;4974863;28;20210;-74
2021/03/10 01:36:24;;;;;;;41.97;30.73;;;4.20;99.90;;;;;;4974778;28;20316;-72
2021/03/10 01:38:50;;;;;;;44.57;30.03;;;4.10;99.90;;;;;;4974487;28;20748;-72
2021/03/10 01:41:17;;;;;;;42.60;29.90;;;4.10;99.90;;;;;;4974343;28;20252;-72
2021/03/10 01:43:44;;;;;;;41.27;28.53;;;4.20;99.90;;;;;;4975005;28;20213;-71
2021/03/10 01:46:10;;;;;;;40.30;29.80;;;4.30;99.90;;;;;;4974234;28;20236;-71
2021/03/10 01:48:38;;;;;;;44.90;29.70;;;4.40;99.90;;;;;;4974775;28;20214;-71
2021/03/10 01:51:06;;;;;;;46.03;30.20;;;4.30;99.90;;;;;;4974013;28;20205;-71
2021/03/10 01:53:32;;;;;;;42.30;28.30;;;4.30;99.90;;;;;;4974416;28;20260;-71
2021/03/10 01:56:01;;;;;;;40.07;30.13;;;4.30;99.90;;;;;;4973053;28;20233;-74
2021/03/10 01:58:27;;;;;;;40.77;27.77;;;4.40;99.90;;;;;;4974201;28;20209;-72
2021/03/10 02:00:54;;;;;;;42.37;29.83;;;4.50;99.90;;;;;;4974704;28;20634;-72
2021/03/10 02:03:20;;;;;;;40.60;28.90;;;4.40;99.90;;;;;;4973692;28;20210;-72
2021/03/10 02:05:48;;;;;;;35.20;27.27;;;4.40;99.90;;;;;;4973975;28;20213;-72
2021/03/10 02:08:21;;;;;;;41.13;30.40;;;4.40;99.90;;;;;;4974136;28;20213;-72
2021/03/10 02:10:59;;;;;;;42.93;29.37;;;4.40;99.90;;;;;;4974419;28;20197;-72
2021/03/10 02:13:38;;;;;;;39.47;28.37;;;4.20;99.90;;;;;;4974347;28;20221;-72
2021/03/10 02:16:11;;;;;;;37.80;27.90;;;4.10;99.90;;;;;;4973738;28;20225;-72
2021/03/10 02:18:44;;;;;;;47.23;32.40;;;4.00;99.90;;;;;;4973810;28;20202;-76
2021/03/10 02:21:21;;;;;;;42.80;30.00;;;3.90;99.90;;;;;;4973146;28;20205;-72
2021/03/10 02:24:04;;;;;;;42.63;29.03;;;4.10;99.90;;;;;;4974186;28;20213;-72
2021/03/10 02:27:31;;;;;;;40.83;28.60;;;4.20;99.90;;;;;;4971834;28;20344;-72
2021/03/10 02:30:01;;;;;;;39.13;29.03;;;4.20;99.90;;;;;;4973696;28;20674;-73
2021/03/10 02:32:28;;;;;;;39.27;27.87;;;4.20;99.90;;;;;;4973857;28;20212;-73
2021/03/10 02:34:55;;;;;;;42.83;28.27;;;4.10;99.90;;;;;;4973477;28;20280;-75
2021/03/10 02:37:23;;;;;;;38.23;27.77;;;4.10;99.90;;;;;;4973223;28;20580;-73
2021/03/10 02:39:50;;;;;;;43.10;31.00;;;4.10;99.90;;;;;;4973774;28;20619;-71
2021/03/10 02:42:17;;;;;;;46.50;33.33;;;4.00;99.90;;;;;;4972895;28;20709;-73
2021/03/10 02:44:44;;;;;;;42.27;30.93;;;4.00;99.90;;;;;;4973550;28;20579;-70
2021/03/10 02:47:13;;;;;;;41.50;31.23;;;4.00;99.90;;;;;;4973348;28;20589;-75
2021/03/10 02:49:40;;;;;;;45.87;30.37;;;4.00;99.90;;;;;;4973175;28;20213;-75
2021/03/10 02:52:08;;;;;;;39.93;29.17;;;3.90;99.90;;;;;;4973286;28;20220;-76
2021/03/10 02:54:36;;;;;;;41.97;28.90;;;4.00;99.90;;;;;;4973241;28;20322;-75
2021/03/10 02:57:03;;;;;;;45.37;30.77;;;3.90;99.90;;;;;;4973159;28;20209;-75
2021/03/10 02:59:31;;;;;;;47.93;29.43;;;3.70;99.90;;;;;;4972857;28;20591;-74
2021/03/10 03:01:58;;;;;;;45.00;32.10;;;3.70;99.90;;;;;;4973358;28;20257;-74
2021/03/10 03:04:25;;;;;;;43.77;29.07;;;3.80;99.90;;;;;;4973078;28;20213;-73
2021/03/10 03:06:51;;;;;;;42.30;30.00;;;3.90;99.90;;;;;;4973494;28;20214;-73
2021/03/10 03:09:19;;;;;;;34.50;27.33;;;3.80;99.90;;;;;;4972645;28;20668;-72
2021/03/10 03:11:46;;;;;;;39.90;27.47;;;3.90;99.90;;;;;;4972952;28;20209;-71
2021/03/10 03:14:13;;;;;;;40.80;28.13;;;4.00;99.90;;;;;;4972552;28;20210;-72
2021/03/10 03:16:41;;;;;;;48.93;31.93;;;4.00;99.90;;;;;;4972736;28;20280;-72
2021/03/10 03:19:07;;;;;;;37.30;29.90;;;4.00;99.90;;;;;;4972633;28;20210;-72
2021/03/10 03:21:35;;;;;;;43.33;30.13;;;3.80;99.90;;;;;;4972850;28;20210;-72
2021/03/10 03:24:03;;;;;;;41.77;28.97;;;3.60;99.90;;;;;;4972492;28;20212;-72
2021/03/10 03:26:31;;;;;;;41.07;29.53;;;3.70;99.90;;;;;;4972801;28;20205;-72
2021/03/10 03:28:58;;;;;;;39.23;29.23;;;3.60;99.90;;;;;;4972863;28;20205;-72
2021/03/10 03:31:27;;;;;;;38.27;30.20;;;3.50;99.90;;;;;;4973225;28;20221;-72
2021/03/10 03:33:54;;;;;;;41.07;28.40;;;3.60;99.90;;;;;;4972407;28;20235;-72
2021/03/10 03:36:21;;;;;;;42.17;29.13;;;3.70;99.90;;;;;;4972159;28;20288;-72
2021/03/10 03:38:49;;;;;;;49.50;30.40;;;3.40;99.90;;;;;;4972396;28;20269;-73
2021/03/10 03:41:16;;;;;;;38.00;27.47;;;3.40;99.90;;;;;;4972200;28;20242;-71
2021/03/10 03:43:42;;;;;;;40.73;28.97;;;3.50;99.90;;;;;;4972338;28;20581;-72
2021/03/10 03:46:12;;;;;;;37.03;27.90;;;3.50;99.90;;;;;;4972456;28;20225;-72
2021/03/10 03:48:38;;;;;;;37.43;27.87;;;3.50;99.90;;;;;;4972088;28;20678;-72
2021/03/10 03:51:22;;;;;;;38.03;28.37;;;3.50;99.90;;;;;;4972129;28;20214;-73
2021/03/10 03:53:55;;;;;;;40.73;28.80;;;3.60;99.90;;;;;;4972059;28;20216;-72
2021/03/10 03:56:21;;;;;;;38.07;26.40;;;3.50;99.90;;;;;;4972462;28;20260;-73
2021/03/10 03:58:48;;;;;;;36.90;27.50;;;3.30;99.90;;;;;;4972190;28;20708;-72
2021/03/10 04:01:14;;;;;;;39.33;28.73;;;3.30;99.90;;;;;;4971482;28;20256;-73
2021/03/10 04:03:41;;;;;;;39.20;27.67;;;3.30;99.90;;;;;;4972414;28;20236;-72
2021/03/10 04:06:07;;;;;;;39.50;29.17;;;3.40;99.90;;;;;;4971715;28;20205;-73
2021/03/10 04:08:34;;;;;;;40.63;31.47;;;3.30;99.90;;;;;;4971996;28;20631;-74
2021/03/10 04:11:01;;;;;;;36.00;29.10;;;3.40;99.90;;;;;;4971722;28;20212;-76
2021/03/10 04:13:28;;;;;;;38.27;29.00;;;3.40;99.90;;;;;;4972278;28;20209;-74
2021/03/10 04:15:54;;;;;;;37.17;27.47;;;3.40;99.90;;;;;;4972120;28;20248;-75
2021/03/10 04:18:21;;;;;;;43.87;28.17;;;3.30;99.90;;;;;;4971704;28;20210;-75
2021/03/10 04:20:47;;;;;;;40.30;26.97;;;3.20;99.90;;;;;;4971808;28;20217;-74
2021/03/10 04:23:15;;;;;;;40.37;28.07;;;3.20;99.90;;;;;;4971210;28;20209;-74
2021/03/10 04:25:42;;;;;;;39.53;29.03;;;3.10;99.90;;;;;;4971821;28;20225;-73
2021/03/10 04:28:09;;;;;;;43.33;31.60;;;3.00;99.90;;;;;;4971288;28;20213;-73
2021/03/10 04:30:36;;;;;;;43.00;32.47;;;3.00;99.90;;;;;;4971867;28;20213;-73
2021/03/10 04:33:03;;;;;;;42.47;28.10;;;3.00;99.90;;;;;;4971176;28;20220;-73
2021/03/10 04:35:30;;;;;;;38.50;28.70;;;3.10;99.90;;;;;;4971595;28;20229;-73
2021/03/10 04:37:56;;;;;;;42.13;29.80;;;3.10;99.90;;;;;;4971887;28;20694;-73
2021/03/10 04:40:23;;;;;;;44.37;29.70;;;3.20;99.90;;;;;;4971495;28;20268;-76
2021/03/10 04:42:50;;;;;;;44.97;29.97;;;3.30;99.90;;;;;;4971953;28;20232;-76
2021/03/10 04:45:17;;;;;;;34.03;25.43;;;3.20;99.90;;;;;;4971323;28;20224;-72
2021/03/10 04:47:45;;;;;;;38.00;27.70;;;3.20;99.90;;;;;;4971833;28;20212;-72
2021/03/10 04:50:13;;;;;;;39.97;28.43;;;3.20;99.90;;;;;;4971406;28;20275;-73
2021/03/10 04:52:39;;;;;;;45.53;31.63;;;3.30;99.90;;;;;;4971220;28;20205;-72
2021/03/10 04:55:07;;;;;;;38.00;28.63;;;3.00;99.90;;;;;;4971318;28;20229;-72
2021/03/10 04:57:34;;;;;;;42.23;29.30;;;3.00;99.90;;;;;;4971638;28;20256;-72
2021/03/10 05:00:01;;;;;;;42.33;27.00;;;3.00;99.90;;;;;;4970898;28;20213;-72
2021/03/10 05:02:28;;;;;;;42.73;30.23;;;3.00;99.90;;;;;;4971430;28;20213;-72
2021/03/10 05:04:54;;;;;;;36.03;27.53;;;3.20;99.90;;;;;;4971472;28;20237;-75
2021/03/10 05:07:21;;;;;;;37.87;28.17;;;3.20;99.90;;;;;;4970949;28;20221;-75
2021/03/10 05:09:48;;;;;;;34.93;25.83;;;3.10;99.90;;;;;;4971280;28;20220;-72
2021/03/10 05:12:15;;;;;;;39.90;28.07;;;3.10;99.90;;;;;;4971044;28;20586;-72
2021/03/10 05:14:41;;;;;;;38.07;28.53;;;3.10;99.90;;;;;;4971085;28;20213;-76
2021/03/10 05:17:08;;;;;;;38.43;28.87;;;3.00;99.90;;;;;;4971155;28;20206;-73
2021/03/10 05:19:35;;;;;;;41.47;28.30;;;3.10;99.90;;;;;;4971216;28;20210;-73
2021/03/10 05:22:01;;;;;;;36.73;27.37;;;3.00;99.90;;;;;;4971213;28;20238;-72
2021/03/10 05:24:28;;;;;;;43.50;28.23;;;3.00;99.90;;;;;;4971012;28;20209;-74
2021/03/10 05:26:54;;;;;;;41.60;27.53;;;3.10;99.90;;;;;;4971772;28;20697;-74
2021/03/10 05:29:21;;;;;;;38.40;28.10;;;3.20;99.90;;;;;;4970516;28;20702;-74
2021/03/10 05:31:47;;;;;;;43.10;27.37;;;3.10;99.90;;;;;;4973047;28;20256;-74
2021/03/10 05:34:14;;;;;;;44.80;28.60;;;2.90;99.90;;;;;;4974283;28;20206;-74
2021/03/10 05:36:41;;;;;;;44.23;28.67;;;2.90;99.90;;;;;;4975052;28;20233;-74
2021/03/10 05:39:08;;;;;;;40.30;28.10;;;2.90;99.90;;;;;;4973947;28;20228;-74
2021/03/10 05:41:34;;;;;;;40.53;27.93;;;2.90;99.90;;;;;;4974564;28;20213;-74
2021/03/10 05:44:01;;;;;;;38.37;27.40;;;2.70;99.90;;;;;;4974090;28;20206;-74
2021/03/10 05:46:28;;;;;;;39.93;28.17;;;2.80;99.90;;;;;;4974650;28;20260;-73
2021/03/10 05:48:55;;;;;;;38.83;28.23;;;2.80;99.90;;;;;;4974634;28;20217;-73
2021/03/10 05:51:21;;;;;;;38.37;28.50;;;2.80;99.90;;;;;;4974622;28;20296;-73
2021/03/10 05:53:50;;;;;;;45.03;29.17;;;2.80;99.90;;;;;;4974280;28;20210;-74
2021/03/10 05:56:17;;;;;;;36.63;26.33;;;2.90;99.90;;;;;;4973387;28;20588;-73
2021/03/10 05:58:54;;;;;;;41.07;27.33;;;2.90;99.90;;;;;;4974348;28;20584;-73
2021/03/10 06:01:21;;;;;;;37.20;26.67;;;2.90;99.90;;;;;;4961075;28;20202;-73
2021/03/10 06:03:58;;;;;;;39.80;26.97;;;2.80;99.90;;;;;;4974124;28;20217;-74
2021/03/10 06:06:26;;;;;;;37.13;26.97;;;2.80;99.90;;;;;;4972345;28;20212;-74
2021/03/10 06:08:54;;;;;;;35.23;28.67;;;2.70;99.90;;;;;;4968117;28;20217;-73
2021/03/10 06:11:24;;;;;;;42.77;29.13;;;2.70;99.90;;;;;;4968046;28;20621;-73
2021/03/10 06:13:51;;;;;;;45.43;30.20;;;2.70;99.90;;;;;;4973621;28;20205;-73
2021/03/10 06:16:22;;;;;;;38.13;28.77;;;2.70;99.90;;;;;;4967981;28;20240;-73
2021/03/10 06:18:49;;;;;;;42.73;30.33;;;2.70;99.90;;;;;;4960619;28;20217;-72
2021/03/10 06:21:17;;;;;;;42.57;28.77;;;2.70;99.90;;;;;;4972509;28;20574;-72
2021/03/10 06:23:51;;;;;;;43.30;28.23;;;2.50;99.90;;;;;;4973946;28;20205;-72
2021/03/10 06:26:20;;;;;;;46.20;30.90;;;2.30;99.90;;;;;;4973561;28;20703;-72
2021/03/10 06:28:47;;;;;;;49.17;28.87;;;2.30;99.90;;;;;;4974324;28;20213;-72
2021/03/10 06:31:18;;;;;;;46.37;29.53;;;2.40;99.90;;;;;;4973573;28;20216;-72
2021/03/10 06:33:45;;;;;;;49.83;32.83;;;2.40;99.90;;;;;;4973998;28;20206;-72
2021/03/10 06:36:11;;;;;;;44.37;30.60;;;2.60;99.90;;;;;;4973261;28;21064;-72
2021/03/10 06:38:38;;;;;;;52.93;31.57;;;2.60;99.90;;;;;;4973241;28;20213;-72
2021/03/10 06:41:04;;;;;;;47.77;31.10;;;2.60;99.90;;;;;;4973635;28;20213;-72
2021/03/10 06:43:37;;;;;;;43.53;28.77;;;2.60;99.90;;;;;;4973182;28;20213;-72
2021/03/10 06:46:14;;;;;;;48.20;29.20;;;2.80;99.90;;;;;;4968865;28;20209;-72
2021/03/10 06:48:55;;;;;;;46.20;30.93;;;3.00;99.90;;;;;;4973633;28;20213;-72
2021/03/10 06:51:23;;;;;;;47.50;30.57;;;3.10;99.90;;;;;;4973051;28;20205;-71
2021/03/10 06:53:49;;;;;;;46.00;29.93;;;3.20;99.90;;;;;;4973047;28;20213;-72
2021/03/10 06:56:21;;;;;;;47.50;32.37;;;3.30;99.90;;;;;;4973036;28;20295;-72
2021/03/10 06:59:00;;;;;;;41.63;31.03;;;3.40;99.90;;;;;;4973150;28;20215;-72
2021/03/10 07:01:36;;;;;;;46.83;30.57;;;3.40;99.90;;;;;;4973099;28;20197;-73
2021/03/10 07:04:03;;;;;;;45.63;28.30;;;3.60;99.90;;;;;;4972387;28;20230;-72
2021/03/10 07:06:30;;;;;;;49.63;33.03;;;3.80;99.90;;;;;;4973145;28;20210;-73
2021/03/10 07:08:57;;;;;;;52.40;32.10;;;3.80;99.90;;;;;;4972671;28;20748;-72
2021/03/10 07:11:24;;;;;;;50.37;33.37;;;3.60;99.90;;;;;;4973249;28;20214;-72
2021/03/10 07:13:51;;;;;;;48.20;30.73;;;3.80;99.90;;;;;;4972975;28;20210;-74
2021/03/10 07:16:20;;;;;;;49.03;32.13;;;3.80;99.90;;;;;;4972490;28;20620;-72
2021/03/10 07:18:48;;;;;;;44.83;30.90;;;3.90;99.90;;;;;;4964390;28;20630;-72
2021/03/10 07:21:23;;;;;;;43.17;29.60;;;4.00;99.90;;;;;;4972497;28;20210;-72
2021/03/10 07:23:51;;;;;;;44.80;28.47;;;4.10;99.90;;;;;;4972471;28;20212;-73
2021/03/10 07:26:19;;;;;;;39.47;27.50;;;4.30;99.90;;;;;;4972683;28;20214;-72
2021/03/10 07:28:50;;;;;;;42.10;28.53;;;4.40;99.90;;;;;;4972590;28;20209;-72
2021/03/10 07:31:23;;;;;;;38.57;28.77;;;4.40;99.90;;;;;;4972877;28;20217;-71
2021/03/10 07:33:54;;;;;;;31.70;25.37;;;4.50;99.90;;;;;;4972424;28;20209;-72
2021/03/10 07:36:33;;;;;;;39.60;29.97;;;4.60;99.90;;;;;;4974551;28;20704;-73
2021/03/10 07:38:59;;;;;;;39.00;27.77;;;4.90;99.90;;;;;;4970519;28;20220;-72
2021/03/10 07:41:33;;;;;;;36.57;26.47;;;5.00;99.90;;;;;;4972802;28;20206;-72
2021/03/10 07:44:00;;;;;;;38.97;26.23;;;5.30;99.90;;;;;;4969599;28;20574;-72
2021/03/10 07:46:29;;;;;;;40.13;27.23;;;5.40;99.90;;;;;;4962786;28;20210;-72
2021/03/10 07:48:57;;;;;;;36.20;26.03;;;5.40;99.90;;;;;;4970812;28;20209;-72
2021/03/10 07:51:29;;;;;;;34.30;23.50;;;5.40;99.90;;;;;;4970853;28;20212;-73
2021/03/10 07:53:56;;;;;;;35.63;24.80;;;5.50;99.90;;;;;;4967714;28;20193;-75
2021/03/10 07:56:24;;;;;;;36.43;23.80;;;6.00;99.90;;;;;;4972089;28;20237;-73
2021/03/10 07:58:50;;;;;;;37.87;27.20;;;6.40;99.90;;;;;;4971957;28;20251;-76
2021/03/10 08:01:17;;;;;;;35.60;24.97;;;7.10;99.90;;;;;;4972262;28;20236;-74
2021/03/10 08:03:45;;;;;;;36.60;26.73;;;8.30;99.90;;;;;;4971989;28;20214;-73
2021/03/10 08:06:12;;;;;;;38.17;25.33;;;8.20;99.90;;;;;;4971156;28;20268;-74
2021/03/10 08:08:40;;;;;;;35.47;26.43;;;8.10;99.90;;;;;;4967269;28;20206;-72
2021/03/10 08:11:11;;;;;;;31.73;24.13;;;8.30;99.90;;;;;;4965262;28;20214;-72
2021/03/10 08:13:38;;;;;;;31.80;22.77;;;9.00;99.90;;;;;;4971310;28;20205;-72
2021/03/10 08:16:06;;;;;;;36.20;24.67;;;9.50;99.90;;;;;;4968811;28;20257;-72
2021/03/10 08:18:32;;;;;;;39.07;25.00;;;10.10;99.90;;;;;;4969600;28;20205;-72
2021/03/10 08:21:07;;;;;;;33.83;25.17;;;10.50;99.90;;;;;;4970499;28;20296;-72
2021/03/10 08:23:33;;;;;;;41.47;26.43;;;9.70;99.90;;;;;;4969201;28;20556;-72
2021/03/10 08:26:02;;;;;;;33.73;24.60;;;8.50;99.90;;;;;;4969919;28;20280;-72
2021/03/10 08:28:34;;;;;;;33.03;24.77;;;8.60;99.90;;;;;;4969435;28;20264;-72
2021/03/10 08:31:02;;;;;;;39.93;27.80;;;8.00;99.90;;;;;;4969636;28;20209;-72
2021/03/10 08:33:28;;;;;;;33.10;24.80;;;8.30;99.90;;;;;;4971135;28;20979;-72
2021/03/10 08:35:55;;;;;;;33.53;25.87;;;9.70;99.90;;;;;;4971452;28;20244;-73
2021/03/10 08:38:23;;;;;;;32.30;23.20;;;11.50;99.90;;;;;;4971434;28;20222;-72
2021/03/10 08:40:50;;;;;;;36.13;26.93;;;10.70;99.90;;;;;;4970586;28;20218;-72
2021/03/10 08:43:18;;;;;;;30.90;23.83;;;9.80;99.90;;;;;;4971446;28;20405;-71
2021/03/10 08:45:45;;;;;;;33.03;25.63;;;9.40;99.90;;;;;;4971409;28;20260;-71
2021/03/10 08:48:13;;;;;;;31.13;23.37;;;12.30;99.90;;;;;;4969969;28;20585;-72
2021/03/10 08:50:41;;;;;;;31.33;23.37;;;13.40;99.90;;;;;;4968841;28;20205;-72
2021/03/10 08:53:09;;;;;;;33.57;24.87;;;14.70;99.90;;;;;;4970729;28;20260;-72
2021/03/10 08:55:37;;;;;;;37.70;24.80;;;13.60;99.90;;;;;;4970286;28;20733;-72
2021/03/10 08:58:09;;;;;;;32.23;23.67;;;13.20;99.90;;;;;;4969917;28;20206;-72
2021/03/10 09:00:36;;;;;;;33.07;22.60;;;12.20;99.90;;;;;;4970476;28;20255;-72
2021/03/10 09:03:10;;;;;;;30.17;24.40;;;11.20;99.90;;;;;;4968775;28;20272;-72
2021/03/10 09:05:37;;;;;;;30.80;25.53;;;11.80;99.90;;;;;;4969446;28;20450;-72
2021/03/10 09:08:06;;;;;;;34.70;24.53;;;12.30;99.90;;;;;;4973644;28;20202;-72
2021/03/10 09:10:34;;;;;;;35.63;25.23;;;12.10;99.90;;;;;;4972212;28;20249;-72
2021/03/10 09:13:02;;;;;;;28.83;23.20;;;11.70;99.90;;;;;;4972973;28;20205;-72
2021/03/10 09:15:30;;;;;;;34.90;26.57;;;12.90;99.90;;;;;;4973728;28;20284;-72
2021/03/10 09:18:03;;;;;;;33.90;25.43;;;11.60;99.90;;;;;;4974520;28;20716;-72
2021/03/10 09:20:31;;;;;;;29.63;25.83;;;12.70;99.90;;;;;;4973216;28;20212;-72
2021/03/10 09:22:59;;;;;;;30.50;23.70;;;12.80;99.90;;;;;;4967010;28;20215;-72
2021/03/10 09:25:27;;;;;;;34.70;23.65;;;14.80;99.90;;;;;;4973898;28;20311;-72
2021/03/10 09:28:06;;;;;;;31.58;25.45;;;16.80;99.90;;;;;;4973911;28;20288;-72
2021/03/10 09:30:34;;;;;;;30.67;24.42;;;16.10;99.90;;;;;;4971213;28;20213;-72
2021/03/10 09:33:01;;;;;;;34.80;26.55;;;14.10;99.90;;;;;;4973039;28;20218;-72
2021/03/10 09:35:32;;;;;;;37.17;26.52;;;12.80;99.90;;;;;;4974963;28;20236;-72
2021/03/10 09:38:01;;;;;;;39.00;27.27;;;11.20;99.90;;;;;;4974377;28;20224;-72
2021/03/10 09:40:37;;;;;;;32.78;24.95;;;11.60;99.90;;;;;;4973918;28;20260;-72
2021/03/10 09:43:06;;;;;;;30.60;24.02;;;13.10;99.90;;;;;;4974352;28;20201;-71
2021/03/10 09:45:36;;;;;;;32.72;25.58;;;15.80;99.90;;;;;;4973135;28;20235;-71
2021/03/10 09:48:04;;;;;;;27.52;24.65;;;17.10;99.90;;;;;;4973595;28;20210;-71
2021/03/10 09:50:32;;;;;;;29.88;25.10;;;16.40;99.90;;;;;;4974462;28;20213;-72
2021/03/10 09:52:59;;;;;;;29.70;23.30;;;15.30;99.90;;;;;;4974310;28;20216;-72
2021/03/10 09:55:27;;;;;;;32.88;25.08;;;17.70;99.90;;;;;;4974810;28;20229;-74
2021/03/10 09:58:05;;;;;;;28.48;24.48;;;18.10;99.90;;;;;;4973946;28;20209;-73
2021/03/10 10:00:31;;;;;;;31.42;24.80;;;14.70;99.90;;;;;;4972609;28;20206;-74
2021/03/10 10:02:58;;;;;;;28.63;23.38;;;13.60;99.90;;;;;;4973549;28;20209;-73
2021/03/10 10:05:26;;;;;;;30.70;22.77;;;15.70;99.90;;;;;;4972938;28;20205;-74
2021/03/10 10:07:54;;;;;;;29.80;24.55;;;17.60;99.90;;;;;;4972650;28;20666;-74
2021/03/10 10:10:21;;;;;;;30.42;23.23;;;18.60;99.90;;;;;;4974443;28;20214;-73
2021/03/10 10:12:50;;;;;;;29.80;24.67;;;19.60;99.90;;;;;;4974089;28;20217;-73
2021/03/10 10:15:20;;;;;;;26.63;22.63;;;20.60;99.90;;;;;;4973807;28;20301;-74
2021/03/10 10:17:48;;;;;;;29.75;23.45;;;20.10;99.90;;;;;;4973113;28;20214;-73
2021/03/10 10:20:16;;;;;;;32.58;24.92;;;20.00;99.90;;;;;;4973920;28;20206;-74
2021/03/10 10:22:44;;;;;;;23.15;20.60;;;17.80;99.90;;;;;;4973986;28;20216;-74
2021/03/10 10:25:12;;;;;;;24.25;21.65;;;16.40;99.90;;;;;;4973801;28;20213;-74
2021/03/10 10:27:39;;;;;;;24.35;20.33;;;16.90;99.90;;;;;;4974056;28;20218;-73
2021/03/10 10:30:06;;;;;;;23.15;20.73;;;16.90;99.90;;;;;;4973020;28;20693;-73
2021/03/10 10:32:34;;;;;;;20.92;17.98;;;18.70;99.90;;;;;;4973880;28;20212;-73
2021/03/10 10:35:00;;;;;;;24.90;20.75;;;19.20;99.90;;;;;;4973536;28;20209;-73
2021/03/10 10:37:28;;;;;;;19.15;17.15;;;17.40;99.90;;;;;;4973628;28;20776;-73
2021/03/10 10:39:55;;;;;;;22.65;18.95;;;15.60;99.90;;;;;;4973332;28;20624;-74
2021/03/10 10:42:21;;;;;;;20.48;17.40;;;13.50;99.90;;;;;;4973365;28;20749;-73
2021/03/10 10:44:48;;;;;;;21.67;18.83;;;12.10;99.90;;;;;;4974007;28;20213;-73
2021/03/10 10:47:14;;;;;;;23.85;19.63;;;12.10;99.90;;;;;;4973285;28;20268;-73
2021/03/10 10:49:42;;;;;;;26.63;20.48;;;12.10;99.90;;;;;;4972631;28;20217;-74
2021/03/10 10:52:08;;;;;;;25.15;20.30;;;11.90;99.90;;;;;;4971888;28;20682;-73
2021/03/10 10:54:35;;;;;;;23.35;19.48;;;12.20;99.90;;;;;;4973379;28;20210;-73
2021/03/10 10:57:01;;;;;;;25.33;19.27;;;11.90;99.90;;;;;;4969892;28;20245;-74
2021/03/10 10:59:28;;;;;;;30.85;20.48;;;12.00;99.90;;;;;;4972920;28;20206;-73
2021/03/10 11:01:54;;;;;;;26.63;19.30;;;12.20;99.90;;;;;;4972962;28;20216;-73
2021/03/10 11:04:21;;;;;;;21.85;17.27;;;12.40;99.90;;;;;;4972992;28;20268;-73
2021/03/10 11:06:48;;;;;;;25.70;20.02;;;12.20;99.90;;;;;;4972822;28;20224;-73
2021/03/10 11:09:15;;;;;;;26.40;18.85;;;12.00;99.90;;;;;;4972502;28;20308;-73
2021/03/10 11:11:41;;;;;;;20.23;17.10;;;12.50;99.90;;;;;;4970735;28;20217;-74
2021/03/10 11:14:08;;;;;;;23.35;18.88;;;12.20;99.90;;;;;;4962290;28;20273;-74
2021/03/10 11:16:34;;;;;;;24.48;18.75;;;11.50;99.90;;;;;;4972604;28;20234;-75
2021/03/10 11:19:01;;;;;;;20.50;18.33;;;11.90;99.90;;;;;;4969994;28;20225;-74
2021/03/10 11:21:27;;;;;;;23.53;17.70;;;11.40;99.90;;;;;;4969613;28;20213;-74
2021/03/10 11:23:54;;;;;;;23.20;18.98;;;11.60;99.90;;;;;;4971855;28;20232;-73
2021/03/10 11:26:21;;;;;;;21.88;18.00;;;11.80;99.90;;;;;;4972161;28;20213;-72
2021/03/10 11:28:47;;;;;;;31.10;20.20;;;12.20;99.90;;;;;;4970874;28;20209;-73
2021/03/10 11:31:14;;;;;;;23.33;19.87;;;12.00;99.90;;;;;;4972311;28;20205;-74
2021/03/10 11:33:40;;;;;;;25.70;19.77;;;12.00;99.90;;;;;;4972333;28;20205;-73
2021/03/10 11:36:08;;;;;;;24.60;18.40;;;12.30;99.90;;;;;;4972498;28;20597;-73
2021/03/10 11:38:35;;;;;;;24.13;19.33;;;12.80;99.90;;;;;;4972754;28;20686;-73
2021/03/10 11:41:02;;;;;;;23.90;20.00;;;12.80;99.90;;;;;;4968879;28;20220;-73
2021/03/10 11:43:29;;;;;;;21.13;18.23;;;12.20;99.90;;;;;;4966294;28;20209;-73
2021/03/10 11:45:56;;;;;;;16.50;14.43;;;12.50;99.90;;;;;;4971172;28;20221;-74
2021/03/10 11:48:22;;;;;;;17.77;14.07;;;12.30;99.90;;;;;;4972092;28;20260;-73
2021/03/10 11:50:49;;;;;;;14.47;11.50;;;12.50;99.90;;;;;;4972209;28;20201;-73
2021/03/10 11:53:15;;;;;;;18.77;13.10;;;12.70;99.90;;;;;;4963857;28;20260;-73
2021/03/10 11:55:42;;;;;;;17.67;14.77;;;12.40;99.90;;;;;;4972211;28;20236;-72
2021/03/10 11:58:09;;;;;;;17.43;14.63;;;12.90;99.90;;;;;;4972115;28;20558;-73
2021/03/10 12:00:38;;;;;;;20.30;14.33;;;13.40;99.90;;;;;;4971830;28;20209;-72
2021/03/10 12:03:05;;;;;;;20.47;14.97;;;13.60;99.90;;;;;;4962825;28;20245;-72
2021/03/10 12:05:32;;;;;;;19.75;16.65;;;13.50;99.90;;;;;;4971706;28;20290;-74
2021/03/10 12:07:58;;;;;;;18.58;16.55;;;12.70;99.90;;;;;;4970634;28;20213;-74
2021/03/10 12:10:25;;;;;;;18.63;14.85;;;12.90;99.90;;;;;;4971178;28;20217;-72
2021/03/10 12:12:51;;;;;;;22.77;16.05;;;12.50;99.90;;;;;;4971399;28;20225;-70
2021/03/10 12:15:19;;;;;;;18.63;15.00;;;12.70;99.90;;;;;;4971994;28;20292;-77
2021/03/10 12:17:46;;;;;;;20.57;17.20;;;13.00;99.90;;;;;;4969010;28;20217;-72
2021/03/10 12:20:13;;;;;;;17.85;14.57;;;13.00;99.90;;;;;;4971130;28;20224;-74
2021/03/10 12:22:40;;;;;;;16.77;14.40;;;13.00;99.90;;;;;;4971420;28;20213;-71
2021/03/10 12:25:08;;;;;;;17.63;13.87;;;13.20;99.90;;;;;;4971236;28;20337;-76
2021/03/10 12:27:34;;;;;;;19.03;15.33;;;13.40;99.90;;;;;;4970667;28;20213;-74
2021/03/10 12:30:02;;;;;;;16.10;14.02;;;13.60;99.90;;;;;;4968242;28;20209;-72
2021/03/10 12:32:29;;;;;;;18.85;14.27;;;13.40;99.90;;;;;;4967139;28;20213;-74
2021/03/10 12:34:57;;;;;;;16.40;14.20;;;13.50;99.90;;;;;;4970345;28;20216;-76
2021/03/10 12:37:23;;;;;;;16.15;13.52;;;13.70;99.90;;;;;;4968652;28;20733;-74